createdAt,value
2023-05-10T00:00:26.125Z,1.95
2023-05-10T00:02:57.168Z,1.73
2023-05-10T00:05:28.158Z,2.08
2023-05-10T00:07:59.043Z,1.38
2023-05-10T00:10:29.921Z,1.83
2023-05-10T00:13:03.398Z,1.58
2023-05-10T00:15:35.966Z,1.30
2023-05-10T00:18:07.107Z,2.13
2023-05-10T00:20:38.071Z,1.83
2023-05-10T00:23:08.984Z,1.40
2023-05-10T00:25:39.807Z,1.75
2023-05-10T00:28:14.401Z,1.23
2023-05-10T00:30:45.495Z,1.80
2023-05-10T00:33:16.499Z,1.50
2023-05-10T00:35:47.443Z,1.52
2023-05-10T00:38:20.294Z,1.67
2023-05-10T00:40:51.378Z,1.90
2023-05-10T00:43:32.417Z,1.70
2023-05-10T00:46:03.598Z,1.50
2023-05-10T00:48:34.617Z,1.50
2023-05-10T00:51:06.408Z,2.10
2023-05-10T00:53:39.182Z,2.08
2023-05-10T00:56:10.316Z,2.08
2023-05-10T00:58:44.120Z,1.58
2023-05-10T01:01:16.172Z,1.30
2023-05-10T01:03:48.207Z,1.77
2023-05-10T01:06:20.249Z,1.77
2023-05-10T01:08:51.517Z,1.92
2023-05-10T01:11:22.513Z,1.10
2023-05-10T01:14:00.931Z,1.70
2023-05-10T01:16:33.995Z,1.48
2023-05-10T01:19:05.253Z,1.85
2023-05-10T01:21:47.044Z,1.90
2023-05-10T01:24:47.612Z,1.50
2023-05-10T01:27:56.883Z,1.95
2023-05-10T01:30:49.724Z,1.35
2023-05-10T01:33:26.040Z,1.92
2023-05-10T01:36:03.161Z,2.58
2023-05-10T01:38:40.559Z,1.80
2023-05-10T01:41:19.396Z,1.80
2023-05-10T01:43:58.592Z,1.90
2023-05-10T01:46:33.923Z,2.00
2023-05-10T01:49:12.247Z,2.47
2023-05-10T01:51:49.107Z,1.92
2023-05-10T01:57:00.008Z,1.92
2023-05-10T01:59:34.802Z,3.40
2023-05-10T02:02:07.175Z,1.27
2023-05-10T02:04:42.830Z,1.90
2023-05-10T02:07:15.835Z,1.67
2023-05-10T02:09:50.737Z,1.95
2023-05-10T02:12:23.676Z,2.33
2023-05-10T02:14:56.870Z,1.80
2023-05-10T02:17:56.093Z,1.80
2023-05-10T02:20:30.639Z,2.00
2023-05-10T02:23:03.144Z,2.10
2023-05-10T02:25:35.801Z,2.13
2023-05-10T02:28:09.912Z,2.70
2023-05-10T02:30:41.405Z,1.75
2023-05-10T02:33:12.777Z,1.95
2023-05-10T02:35:46.934Z,2.15
2023-05-10T02:38:19.091Z,2.03
2023-05-10T02:40:50.942Z,3.00
2023-05-10T02:43:22.814Z,1.98
2023-05-10T02:45:54.145Z,2.42
2023-05-10T02:48:25.033Z,1.42
2023-05-10T02:51:00.785Z,2.35
2023-05-10T02:53:36.127Z,2.58
2023-05-10T02:56:16.141Z,1.52
2023-05-10T02:58:47.481Z,1.95
2023-05-10T03:01:18.360Z,1.90
2023-05-10T03:03:49.216Z,2.00
2023-05-10T03:06:22.796Z,1.73
2023-05-10T03:08:54.019Z,1.73
2023-05-10T03:11:41.599Z,2.30
2023-05-10T03:14:23.287Z,2.38
2023-05-10T03:17:02.715Z,1.98
2023-05-10T03:19:40.812Z,2.00
2023-05-10T03:22:17.247Z,1.73
2023-05-10T03:24:49.531Z,2.92
2023-05-10T03:27:21.708Z,2.92
2023-05-10T03:29:53.152Z,2.28
2023-05-10T03:32:24.206Z,2.47
2023-05-10T03:34:55.078Z,1.77
2023-05-10T03:37:28.692Z,2.47
2023-05-10T03:39:59.806Z,2.72
2023-05-10T03:42:30.840Z,3.03
2023-05-10T03:45:01.926Z,2.70
2023-05-10T03:47:33.657Z,2.28
2023-05-10T03:50:04.547Z,1.70
2023-05-10T03:52:40.277Z,2.50
2023-05-10T03:55:12.070Z,2.80
2023-05-10T03:57:42.913Z,2.65
2023-05-10T04:00:16.434Z,2.45
2023-05-10T04:02:47.453Z,2.83
2023-05-10T04:05:23.241Z,2.90
2023-05-10T04:07:58.940Z,3.47
2023-05-10T04:10:29.739Z,2.90
2023-05-10T04:13:01.190Z,1.73
2023-05-10T04:15:32.202Z,2.17
2023-05-10T04:18:03.116Z,3.25
2023-05-10T04:20:34.101Z,2.53
2023-05-10T04:23:07.676Z,3.58
2023-05-10T04:25:39.178Z,2.50
2023-05-10T04:28:10.036Z,2.92
2023-05-10T04:30:41.773Z,2.25
2023-05-10T04:33:12.626Z,2.00
2023-05-10T04:35:43.487Z,1.90
2023-05-10T04:38:16.929Z,2.30
2023-05-10T04:40:47.732Z,2.53
2023-05-10T04:43:18.579Z,3.15
2023-05-10T04:45:49.582Z,2.53
2023-05-10T04:48:20.592Z,2.85
2023-05-10T04:50:51.459Z,2.75
2023-05-10T04:53:25.094Z,2.72
2023-05-10T04:55:56.019Z,2.30
2023-05-10T04:58:27.363Z,2.92
2023-05-10T05:00:58.193Z,2.47
2023-05-10T05:03:29.191Z,2.40
2023-05-10T05:06:00.161Z,1.80
2023-05-10T05:08:33.695Z,1.80
2023-05-10T05:11:04.782Z,2.95
2023-05-10T05:13:35.737Z,2.35
2023-05-10T05:16:06.945Z,2.65
2023-05-10T05:18:38.007Z,2.20
2023-05-10T05:21:18.385Z,2.75
2023-05-10T05:23:51.922Z,2.00
2023-05-10T05:26:23.064Z,3.53
2023-05-10T05:28:55.777Z,1.63
2023-05-10T05:31:27.482Z,2.40
2023-05-10T05:33:58.345Z,3.35
2023-05-10T05:36:29.126Z,2.67
2023-05-10T05:39:02.568Z,2.05
2023-05-10T05:41:33.807Z,2.17
2023-05-10T05:44:04.710Z,3.15
2023-05-10T05:46:36.098Z,1.13
2023-05-10T05:49:07.219Z,1.52
2023-05-10T05:51:38.835Z,2.50
2023-05-10T05:54:12.360Z,1.65
2023-05-10T05:56:43.287Z,2.10
2023-05-10T05:59:14.186Z,2.53
2023-05-10T06:01:45.066Z,2.47
2023-05-10T06:04:15.967Z,1.83
2023-05-10T06:06:47.222Z,2.67
2023-05-10T06:09:20.830Z,2.30
2023-05-10T06:11:51.911Z,1.50
2023-05-10T06:14:25.151Z,2.33
2023-05-10T06:16:56.118Z,1.80
2023-05-10T06:19:27.663Z,1.83
2023-05-10T06:21:58.854Z,2.00
2023-05-10T06:24:33.670Z,2.38
2023-05-10T06:27:05.749Z,1.98
2023-05-10T06:29:36.740Z,2.38
2023-05-10T06:32:07.885Z,2.88
2023-05-10T06:34:38.762Z,3.22
2023-05-10T06:37:09.677Z,3.45
2023-05-10T06:39:43.053Z,2.25
2023-05-10T06:42:13.876Z,1.83
2023-05-10T06:44:44.873Z,2.33
2023-05-10T06:47:15.764Z,3.38
2023-05-10T06:49:46.826Z,1.65
2023-05-10T06:52:17.858Z,2.22
2023-05-10T06:54:51.406Z,2.30
2023-05-10T06:57:31.358Z,2.65
2023-05-10T07:00:05.352Z,2.85
2023-05-10T07:02:36.663Z,2.13
2023-05-10T07:05:08.017Z,2.67
2023-05-10T07:07:39.063Z,2.75
2023-05-10T07:10:13.856Z,2.50
2023-05-10T07:12:44.856Z,2.20
2023-05-10T07:15:17.561Z,2.30
2023-05-10T07:17:48.679Z,2.10
2023-05-10T07:20:19.860Z,2.15
2023-05-10T07:22:50.774Z,1.90
2023-05-10T07:25:24.321Z,2.13
2023-05-10T07:27:55.405Z,2.05
2023-05-10T07:30:26.555Z,1.77
2023-05-10T07:32:57.891Z,2.08
2023-05-10T07:35:28.874Z,2.45
2023-05-10T07:37:59.949Z,1.75
2023-05-10T07:40:34.479Z,2.63
2023-05-10T07:43:05.774Z,2.47
2023-05-10T07:45:37.529Z,2.17
2023-05-10T07:48:08.612Z,3.22
2023-05-10T07:50:39.687Z,3.40
2023-05-10T07:53:10.686Z,2.38
2023-05-10T07:55:44.428Z,2.38
2023-05-10T07:58:15.647Z,2.60
2023-05-10T08:00:46.547Z,2.45
2023-05-10T08:03:17.535Z,3.28
2023-05-10T08:05:48.503Z,2.50
2023-05-10T08:08:19.395Z,2.50
2023-05-10T08:10:52.969Z,2.45
2023-05-10T08:13:24.316Z,2.22
2023-05-10T08:15:56.013Z,2.15
2023-05-10T08:18:27.295Z,2.42
2023-05-10T08:20:59.191Z,1.92
2023-05-10T08:23:31.498Z,2.58
2023-05-10T08:26:05.608Z,2.70
2023-05-10T08:28:37.133Z,2.90
2023-05-10T08:31:09.604Z,2.72
2023-05-10T08:33:42.168Z,2.67
2023-05-10T08:36:15.510Z,2.00
2023-05-10T08:38:46.631Z,2.00
2023-05-10T08:41:20.408Z,2.17
2023-05-10T08:43:52.290Z,2.00
2023-05-10T08:46:24.903Z,2.53
2023-05-10T08:48:58.455Z,1.50
2023-05-10T08:51:31.615Z,1.67
2023-05-10T08:54:12.933Z,1.85
2023-05-10T08:56:49.714Z,1.63
2023-05-10T08:59:20.974Z,2.22
2023-05-10T09:01:54.899Z,1.90
2023-05-10T09:04:25.982Z,1.90
2023-05-10T09:06:57.105Z,3.03
2023-05-10T09:09:29.535Z,2.20
2023-05-10T09:12:03.065Z,2.75
2023-05-10T09:14:34.929Z,2.40
2023-05-10T09:17:06.141Z,2.17
2023-05-10T09:19:37.006Z,1.60
2023-05-10T09:22:08.198Z,1.75
2023-05-10T09:24:44.294Z,2.30
2023-05-10T09:27:19.615Z,2.08
2023-05-10T09:29:54.599Z,2.30
2023-05-10T09:32:25.669Z,1.58
2023-05-10T09:34:56.552Z,1.77
2023-05-10T09:37:34.213Z,2.13
2023-05-10T09:40:05.927Z,2.20
2023-05-10T09:42:39.873Z,1.80
2023-05-10T09:45:12.069Z,1.70
2023-05-10T09:47:43.135Z,1.90
2023-05-10T09:50:14.722Z,1.95
2023-05-10T09:52:56.173Z,2.08
2023-05-10T09:55:29.525Z,2.10
2023-05-10T09:58:11.060Z,1.98
2023-05-10T10:00:44.711Z,2.00
2023-05-10T10:03:22.464Z,1.77
2023-05-10T10:05:57.422Z,1.45
2023-05-10T10:08:29.338Z,1.50
2023-05-10T10:11:00.662Z,1.90
2023-05-10T10:13:34.767Z,1.85
2023-05-10T10:16:07.489Z,1.25
2023-05-10T10:18:42.207Z,1.33
2023-05-10T10:21:13.229Z,1.70
2023-05-10T10:23:45.161Z,1.67
2023-05-10T10:26:19.067Z,1.67
2023-05-10T10:29:00.797Z,2.83
2023-05-10T10:31:40.718Z,1.95
2023-05-10T10:34:14.350Z,1.40
2023-05-10T10:36:46.554Z,1.58
2023-05-10T10:39:18.918Z,1.40
2023-05-10T10:41:55.141Z,2.83
2023-05-10T10:44:43.835Z,1.48
2023-05-10T10:47:34.596Z,1.60
2023-05-10T10:50:12.239Z,1.35
2023-05-10T10:52:44.419Z,1.67
2023-05-10T10:55:19.597Z,1.23
2023-05-10T10:57:53.750Z,1.63
2023-05-10T11:00:34.811Z,1.38
2023-05-10T11:03:10.528Z,1.20
2023-05-10T11:05:48.972Z,1.30
2023-05-10T11:08:31.189Z,1.08
2023-05-10T11:11:12.008Z,1.27
2023-05-10T11:13:44.568Z,1.50
2023-05-10T11:16:23.093Z,1.88
2023-05-10T11:18:59.004Z,1.40
2023-05-10T11:21:30.137Z,1.15
2023-05-10T11:24:02.523Z,1.55
2023-05-10T11:26:37.927Z,0.85
2023-05-10T11:29:09.341Z,0.90
2023-05-10T11:31:48.110Z,1.38
2023-05-10T11:34:28.559Z,1.38
2023-05-10T11:37:00.722Z,0.98
2023-05-10T11:39:32.120Z,1.20
2023-05-10T11:42:03.456Z,1.42
2023-05-10T11:44:35.154Z,1.00
2023-05-10T11:47:09.898Z,0.65
2023-05-10T11:49:41.060Z,1.27
2023-05-10T11:52:13.369Z,0.90
2023-05-10T11:54:50.713Z,0.88
2023-05-10T11:57:23.087Z,0.90
2023-05-10T11:59:58.759Z,0.98
2023-05-10T12:02:33.113Z,1.05
2023-05-10T12:05:05.428Z,0.77
2023-05-10T12:07:37.042Z,0.70
2023-05-10T12:10:11.055Z,0.60
2023-05-10T12:12:43.257Z,0.60
2023-05-10T12:15:22.153Z,1.00
2023-05-10T12:17:56.095Z,0.60
2023-05-10T12:20:28.470Z,0.68
2023-05-10T12:23:03.299Z,0.55
2023-05-10T12:25:37.066Z,0.60
2023-05-10T12:28:09.417Z,1.15
2023-05-10T12:30:40.895Z,0.65
2023-05-10T12:33:19.326Z,0.40
2023-05-10T12:35:51.801Z,0.70
2023-05-10T12:38:33.591Z,0.30
2023-05-10T12:41:06.315Z,0.40
2023-05-10T12:43:38.162Z,0.57
2023-05-10T12:46:12.729Z,0.40
2023-05-10T12:48:48.141Z,0.60
2023-05-10T12:51:20.919Z,0.80
2023-05-10T12:53:51.874Z,0.80
2023-05-10T12:56:22.796Z,0.80
2023-05-10T12:58:53.896Z,0.90
2023-05-10T13:01:24.757Z,0.70
2023-05-10T13:03:58.235Z,0.80
2023-05-10T13:06:29.228Z,0.68
2023-05-10T13:09:00.350Z,0.55
2023-05-10T13:11:31.574Z,0.50
2023-05-10T13:14:04.512Z,0.60
2023-05-10T13:16:35.623Z,0.63
2023-05-10T13:19:09.226Z,0.70
2023-05-10T13:21:42.185Z,0.82
2023-05-10T13:24:15.072Z,0.82
2023-05-10T13:26:46.136Z,0.60
2023-05-10T13:29:19.278Z,0.98
2023-05-10T13:31:50.672Z,1.05
2023-05-10T13:34:25.519Z,0.90
2023-05-10T13:36:57.675Z,1.10
2023-05-10T13:39:28.674Z,1.00
2023-05-10T13:41:59.546Z,0.73
2023-05-10T13:44:30.609Z,0.80
2023-05-10T13:47:01.921Z,0.90
2023-05-10T13:49:36.168Z,0.82
2023-05-10T13:52:08.165Z,0.80
2023-05-10T13:54:39.569Z,0.60
2023-05-10T13:57:10.740Z,0.90
2023-05-10T14:00:07.745Z,0.88
2023-05-10T14:02:50.639Z,0.82
2023-05-10T14:05:26.204Z,1.17
2023-05-10T14:07:57.734Z,1.00
2023-05-10T14:10:28.818Z,1.63
2023-05-10T14:12:59.636Z,0.98
2023-05-10T14:15:30.597Z,0.73
2023-05-10T14:18:01.866Z,1.00
2023-05-10T14:20:35.515Z,1.67
2023-05-10T14:23:06.517Z,1.33
2023-05-10T14:25:37.665Z,0.73
2023-05-10T14:28:13.610Z,1.20
2023-05-10T14:30:45.375Z,0.88
2023-05-10T14:33:41.054Z,0.95
2023-05-10T14:36:15.735Z,1.10
2023-05-10T14:38:46.731Z,1.05
2023-05-10T14:44:29.974Z,1.40
2023-05-10T14:47:14.492Z,1.10
2023-05-10T14:49:46.097Z,0.60
2023-05-10T14:52:23.587Z,0.77
2023-05-10T14:57:53.593Z,1.17
2023-05-10T15:00:26.090Z,1.30
2023-05-10T15:02:57.437Z,1.20
2023-05-10T15:05:29.262Z,0.80
2023-05-10T15:08:06.091Z,1.20
2023-05-10T15:10:38.091Z,0.80
2023-05-10T15:13:09.354Z,0.88
2023-05-10T15:15:40.467Z,0.75
2023-05-10T15:18:13.777Z,0.95
2023-05-10T15:20:45.353Z,2.50
2023-05-10T15:23:19.079Z,1.20
2023-05-10T15:25:51.050Z,1.45
2023-05-10T15:28:21.991Z,1.58
2023-05-10T15:30:53.027Z,1.10
2023-05-10T15:37:25.816Z,1.50
2023-05-10T15:40:05.025Z,1.30
2023-05-10T15:42:37.945Z,1.30
2023-05-10T15:45:10.147Z,1.02
2023-05-10T15:47:41.229Z,1.50
2023-05-10T15:50:13.225Z,1.15
2023-05-10T15:52:44.586Z,1.60
2023-05-10T15:55:18.633Z,1.00
2023-05-10T15:57:50.786Z,1.10
2023-05-10T16:00:22.540Z,1.23
2023-05-10T16:02:56.528Z,1.35
2023-05-10T16:05:27.897Z,1.38
2023-05-10T16:07:59.303Z,1.40
2023-05-10T16:10:36.254Z,1.30
2023-05-10T16:13:07.322Z,1.42
2023-05-10T16:16:06.445Z,1.20
2023-05-10T16:18:51.841Z,1.30
2023-05-10T16:21:23.330Z,0.98
2023-05-10T16:23:54.284Z,1.02
2023-05-10T16:26:28.207Z,0.90
2023-05-10T16:28:59.211Z,1.00
2023-05-10T16:31:30.229Z,1.20
2023-05-10T16:34:01.391Z,1.00
2023-05-10T16:36:33.915Z,1.20
2023-05-10T16:39:05.123Z,0.82
2023-05-10T16:41:39.695Z,1.25
2023-05-10T16:44:10.560Z,1.30
2023-05-10T16:46:42.003Z,1.10
2023-05-10T16:49:13.499Z,1.38
2023-05-10T16:51:44.687Z,0.98
2023-05-10T16:54:17.574Z,1.17
2023-05-10T16:56:51.224Z,1.95
2023-05-10T16:59:22.088Z,1.77
2023-05-10T17:01:53.581Z,1.40
2023-05-10T17:04:25.097Z,1.50
2023-05-10T17:06:56.132Z,1.17
2023-05-10T17:09:27.169Z,1.30
2023-05-10T17:12:00.792Z,1.35
2023-05-10T17:14:32.152Z,1.60
2023-05-10T17:17:04.029Z,1.27
2023-05-10T17:19:35.832Z,1.63
2023-05-10T17:22:07.199Z,1.60
2023-05-10T17:24:38.626Z,1.65
2023-05-10T17:27:12.668Z,1.75
2023-05-10T17:29:43.612Z,2.70
2023-05-10T17:32:15.232Z,2.00
2023-05-10T17:34:48.070Z,2.40
2023-05-10T17:37:19.682Z,2.10
2023-05-10T17:39:54.783Z,1.83
2023-05-10T17:42:29.472Z,1.58
2023-05-10T17:45:01.962Z,1.00
2023-05-10T17:47:35.328Z,1.95
2023-05-10T17:50:08.716Z,1.38
2023-05-10T17:52:40.652Z,1.48
2023-05-10T17:55:12.940Z,2.15
2023-05-10T17:57:51.160Z,2.70
2023-05-10T18:00:23.156Z,1.45
2023-05-10T18:02:54.165Z,1.70
2023-05-10T18:05:25.466Z,1.42
2023-05-10T18:07:56.831Z,2.05
2023-05-10T18:10:28.115Z,1.73
2023-05-10T18:13:02.812Z,1.50
2023-05-10T18:15:33.895Z,1.60
2023-05-10T18:18:05.725Z,1.20
2023-05-10T18:20:36.686Z,1.73
2023-05-10T18:23:07.661Z,1.70
2023-05-10T18:25:38.562Z,1.10
2023-05-10T18:28:12.386Z,1.50
2023-05-10T18:30:43.875Z,2.50
2023-05-10T18:33:14.884Z,1.42
2023-05-10T18:35:46.044Z,2.00
2023-05-10T18:38:17.074Z,2.47
2023-05-10T18:40:48.044Z,1.60
2023-05-10T18:43:21.496Z,1.77
2023-05-10T18:45:52.853Z,1.88
2023-05-10T18:48:23.893Z,2.03
2023-05-10T18:50:54.795Z,1.63
2023-05-10T18:53:25.819Z,2.38
2023-05-10T18:56:00.966Z,2.20
2023-05-10T18:58:36.055Z,2.33
2023-05-10T19:01:07.320Z,1.83
2023-05-10T19:03:39.326Z,1.95
2023-05-10T19:06:10.622Z,0.90
2023-05-10T19:08:41.507Z,1.60
2023-05-10T19:11:26.239Z,1.40
2023-05-10T19:14:00.149Z,1.65
2023-05-10T19:16:31.341Z,1.70
2023-05-10T19:19:02.520Z,1.20
2023-05-10T19:21:38.158Z,1.40
2023-05-10T19:24:10.715Z,1.33
2023-05-10T19:26:41.933Z,1.30
2023-05-10T19:29:15.467Z,1.25
2023-05-10T19:31:47.254Z,1.10
2023-05-10T19:34:18.687Z,1.20
2023-05-10T19:36:52.539Z,0.70
2023-05-10T19:39:30.002Z,1.38
2023-05-10T19:42:03.318Z,0.80
2023-05-10T19:44:37.000Z,0.68
2023-05-10T19:47:09.339Z,1.00
2023-05-10T19:49:40.805Z,1.42
2023-05-10T19:52:12.677Z,1.15
2023-05-10T19:54:45.179Z,1.38
2023-05-10T19:57:16.411Z,1.33
2023-05-10T19:59:49.912Z,1.10
2023-05-10T20:02:20.978Z,2.10
2023-05-10T20:04:51.978Z,0.93
2023-05-10T20:07:23.065Z,0.70
2023-05-10T20:09:53.907Z,1.15
2023-05-10T20:12:24.753Z,0.82
2023-05-10T20:14:58.314Z,0.88
2023-05-10T20:17:29.346Z,1.20
2023-05-10T20:20:01.860Z,1.15
2023-05-10T20:22:33.002Z,1.33
2023-05-10T20:25:03.864Z,1.10
2023-05-10T20:27:34.660Z,2.72
2023-05-10T20:30:12.662Z,2.05
2023-05-10T20:32:43.972Z,2.15
2023-05-10T20:35:15.536Z,1.20
2023-05-10T20:37:48.650Z,1.45
2023-05-10T20:40:19.847Z,1.00
2023-05-10T20:42:54.229Z,1.60
2023-05-10T20:45:27.876Z,1.15
2023-05-10T20:47:58.871Z,1.10
2023-05-10T20:50:29.937Z,0.98
2023-05-10T20:53:01.042Z,1.00
2023-05-10T20:55:32.092Z,1.20
2023-05-10T20:58:04.777Z,1.20
2023-05-10T21:00:38.763Z,1.52
2023-05-10T21:03:09.745Z,1.48
2023-05-10T21:05:40.618Z,1.70
2023-05-10T21:08:11.477Z,1.80
2023-05-10T21:10:42.323Z,1.58
2023-05-10T21:13:13.224Z,1.58
2023-05-10T21:15:47.453Z,1.75
2023-05-10T21:18:18.432Z,1.58
2023-05-10T21:20:53.084Z,1.80
2023-05-10T21:23:24.035Z,1.38
2023-05-10T21:25:55.073Z,1.42
2023-05-10T21:28:25.990Z,1.50
2023-05-10T21:30:59.594Z,1.30
2023-05-10T21:33:30.563Z,1.60
2023-05-10T21:36:03.163Z,1.30
2023-05-10T21:38:34.721Z,1.05
2023-05-10T21:41:09.299Z,1.52
2023-05-10T21:43:40.167Z,1.45
2023-05-10T21:46:14.506Z,1.67
2023-05-10T21:48:45.409Z,1.30
2023-05-10T21:51:16.354Z,1.30
2023-05-10T21:53:47.326Z,1.38
2023-05-10T21:56:18.152Z,1.67
2023-05-10T21:58:49.027Z,1.48
2023-05-10T22:01:22.675Z,1.55
2023-05-10T22:03:53.698Z,1.38
2023-05-10T22:06:24.578Z,1.50
2023-05-10T22:08:55.523Z,1.77
2023-05-10T22:11:26.364Z,2.13
2023-05-10T22:13:57.270Z,1.50
2023-05-10T22:16:31.567Z,1.77
2023-05-10T22:19:03.010Z,2.10
2023-05-10T22:21:33.830Z,1.52
2023-05-10T22:24:04.862Z,1.90
2023-05-10T22:26:35.756Z,2.20
2023-05-10T22:29:07.158Z,1.77
2023-05-10T22:31:40.552Z,2.22
2023-05-10T22:34:11.392Z,1.80
2023-05-10T22:36:42.559Z,2.10
2023-05-10T22:39:13.409Z,2.33
2023-05-10T22:41:44.296Z,2.50
2023-05-10T22:44:15.221Z,1.83
2023-05-10T22:46:48.739Z,2.50
2023-05-10T22:49:19.750Z,2.22
2023-05-10T22:51:50.632Z,2.60
2023-05-10T22:54:21.632Z,2.08
2023-05-10T22:56:52.634Z,2.72
2023-05-10T22:59:24.963Z,2.28
2023-05-10T23:01:58.637Z,1.60
2023-05-10T23:04:30.175Z,2.00
2023-05-10T23:07:01.072Z,2.20
2023-05-10T23:09:31.991Z,2.50
2023-05-10T23:12:03.292Z,2.38
2023-05-10T23:14:34.097Z,2.20
2023-05-10T23:17:07.536Z,2.80
2023-05-10T23:19:39.106Z,2.50
2023-05-10T23:22:10.244Z,2.35
2023-05-10T23:24:41.222Z,2.25
2023-05-10T23:27:12.146Z,2.25
2023-05-10T23:29:43.056Z,2.75
2023-05-10T23:32:16.717Z,2.15
2023-05-10T23:34:47.612Z,2.70
2023-05-10T23:37:18.572Z,2.40
2023-05-10T23:39:50.018Z,2.65
2023-05-10T23:42:20.946Z,2.90
2023-05-10T23:44:51.905Z,2.13
2023-05-10T23:47:25.364Z,2.40
2023-05-10T23:49:56.313Z,2.55
2023-05-10T23:52:27.891Z,2.22
2023-05-10T23:54:58.841Z,2.38
2023-05-10T23:57:29.658Z,1.33
